Time;durP1;ratioP1;P1;durP2;ratioP2;P2;SDS_P1;SDS_P2;PMS_P1;PMS_P2;Temp;Humidity;BMP_temperature;BMP_pressure;BME280_temperature;BME280_humidity;BME280_pressure;Samples;Min_cycle;Max_cycle;Signal;HPM_P1;HPM_P2
2023/07/09 00:01:52;;;;;;;7.18;2.80;;;23.30;99.90;;;;;;5094107;28;20036;-68
2023/07/09 00:04:18;;;;;;;7.25;2.85;;;23.30;99.90;;;;;;5093522;28;20017;-69
2023/07/09 00:06:44;;;;;;;9.15;3.05;;;23.30;99.90;;;;;;5093720;28;20107;-68
2023/07/09 00:09:19;;;;;;;7.13;2.90;;;23.30;99.90;;;;;;5093849;28;20483;-68
2023/07/09 00:11:45;;;;;;;10.95;3.10;;;23.30;99.90;;;;;;5093843;28;20391;-68
2023/07/09 00:14:13;;;;;;;9.45;3.10;;;23.30;99.90;;;;;;5093459;28;20016;-69
2023/07/09 00:16:40;;;;;;;9.07;3.33;;;23.30;99.90;;;;;;5093761;28;20401;-67
2023/07/09 00:19:13;;;;;;;10.00;3.60;;;23.10;99.90;;;;;;5093057;28;20020;-68
2023/07/09 00:21:40;;;;;;;10.38;3.30;;;22.90;99.90;;;;;;5093364;28;20035;-67
2023/07/09 00:24:07;;;;;;;12.07;3.70;;;22.80;99.90;;;;;;5093462;28;20499;-68
2023/07/09 00:26:33;;;;;;;9.32;3.28;;;22.60;99.90;;;;;;5093521;28;20510;-68
2023/07/09 00:29:00;;;;;;;10.80;3.63;;;22.50;99.90;;;;;;5092789;28;20039;-69
2023/07/09 00:31:26;;;;;;;10.00;3.45;;;22.50;99.90;;;;;;5093213;28;20024;-68
2023/07/09 00:33:52;;;;;;;9.98;3.85;;;22.50;99.90;;;;;;5093184;28;20060;-68
2023/07/09 00:36:31;;;;;;;11.43;4.30;;;22.40;99.90;;;;;;5093354;28;20567;-68
2023/07/09 00:38:59;;;;;;;10.30;3.60;;;22.40;99.90;;;;;;5092787;28;20052;-68
2023/07/09 00:41:25;;;;;;;10.43;3.47;;;22.30;99.90;;;;;;5093136;28;20028;-68
2023/07/09 00:43:52;;;;;;;10.05;4.20;;;22.30;99.90;;;;;;5093030;28;20521;-68
2023/07/09 00:46:23;;;;;;;11.82;4.32;;;22.30;99.90;;;;;;5093071;28;20438;-68
2023/07/09 00:49:00;;;;;;;9.02;3.83;;;22.20;99.90;;;;;;5092799;28;20040;-68
2023/07/09 00:51:27;;;;;;;10.35;3.80;;;22.20;99.90;;;;;;5092905;28;20441;-68
2023/07/09 00:53:58;;;;;;;11.32;3.72;;;22.10;99.90;;;;;;5092825;28;20103;-68
2023/07/09 00:56:32;;;;;;;8.20;3.20;;;22.10;99.90;;;;;;5092666;28;20051;-68
2023/07/09 00:59:04;;;;;;;;;;;22.10;99.90;;;;;;5092708;28;20031;-68
2023/07/09 01:01:32;;;;;;;10.07;3.67;;;22.10;99.90;;;;;;5092206;28;19949;-68
2023/07/09 01:03:59;;;;;;;12.95;4.30;;;22.40;99.90;;;;;;5092709;28;20028;-68
2023/07/09 01:06:38;;;;;;;10.85;3.97;;;22.50;99.90;;;;;;5092343;28;20016;-67
2023/07/09 01:09:06;;;;;;;10.10;3.50;;;22.50;99.90;;;;;;5092433;28;20379;-68
2023/07/09 01:11:31;;;;;;;11.23;4.22;;;22.70;99.90;;;;;;5092352;28;20052;-68
2023/07/09 01:14:01;;;;;;;9.85;3.83;;;22.80;99.90;;;;;;5092454;28;20059;-68
2023/07/09 01:16:48;;;;;;;9.80;3.95;;;23.00;99.90;;;;;;5092457;28;20020;-68
2023/07/09 01:19:16;;;;;;;12.23;3.42;;;23.00;99.90;;;;;;5092297;28;20024;-68
2023/07/09 01:21:42;;;;;;;10.98;3.50;;;22.90;99.90;;;;;;5092403;28;20032;-68
2023/07/09 01:24:48;;;;;;;11.05;4.07;;;22.90;99.90;;;;;;5092307;28;20537;-68
2023/07/09 01:27:15;;;;;;;9.07;3.50;;;22.80;99.90;;;;;;5092116;28;20032;-68
2023/07/09 01:29:42;;;;;;;8.57;3.88;;;22.90;99.90;;;;;;5092084;28;20036;-68
2023/07/09 01:32:10;;;;;;;9.70;3.47;;;22.90;99.90;;;;;;5091969;28;20115;-69
2023/07/09 01:34:35;;;;;;;5.80;2.67;;;22.90;99.90;;;;;;5092179;28;20166;-69
2023/07/09 01:37:01;;;;;;;9.82;2.92;;;22.90;99.90;;;;;;5092403;28;20095;-69
2023/07/09 01:39:28;;;;;;;9.88;2.97;;;22.80;99.90;;;;;;5091864;28;20062;-69
2023/07/09 01:41:54;;;;;;;8.57;2.83;;;22.70;99.90;;;;;;5091895;28;20398;-68
2023/07/09 01:44:20;;;;;;;7.65;2.65;;;22.60;99.90;;;;;;5091528;28;20034;-69
2023/07/09 01:46:46;;;;;;;8.32;2.88;;;22.40;99.90;;;;;;5091863;28;20103;-69
2023/07/09 01:49:12;;;;;;;9.75;2.97;;;22.30;99.90;;;;;;5091721;28;20115;-69
2023/07/09 01:51:39;;;;;;;9.43;2.97;;;22.30;99.90;;;;;;5091826;28;20563;-69
2023/07/09 01:54:05;;;;;;;8.50;2.97;;;22.20;99.90;;;;;;5092042;28;20032;-69
2023/07/09 01:56:30;;;;;;;7.00;2.80;;;22.10;99.90;;;;;;5091523;28;20025;-69
2023/07/09 01:59:01;;;;;;;8.23;2.80;;;22.00;99.90;;;;;;5091335;28;20035;-69
2023/07/09 02:01:29;;;;;;;9.63;2.88;;;22.00;99.90;;;;;;5091534;28;20398;-68
2023/07/09 02:03:55;;;;;;;8.35;3.00;;;21.90;99.90;;;;;;5091642;28;20031;-68
2023/07/09 02:06:24;;;;;;;7.90;3.15;;;21.90;99.90;;;;;;5091447;28;20030;-68
2023/07/09 02:08:50;;;;;;;8.00;2.80;;;21.90;99.90;;;;;;5090903;28;20040;-68
2023/07/09 02:11:16;;;;;;;9.88;2.83;;;21.80;99.90;;;;;;5091133;28;20039;-68
2023/07/09 02:13:42;;;;;;;11.30;3.00;;;21.80;99.90;;;;;;5090940;28;20027;-68
2023/07/09 02:16:07;;;;;;;9.85;3.10;;;21.60;99.90;;;;;;5091678;28;20026;-68
2023/07/09 02:18:34;;;;;;;8.90;3.25;;;21.60;99.90;;;;;;5091083;28;20115;-66
2023/07/09 02:21:00;;;;;;;16.17;4.60;;;21.50;99.90;;;;;;5091381;28;20058;-66
2023/07/09 02:23:27;;;;;;;19.45;4.93;;;21.60;99.90;;;;;;5091226;28;20062;-66
2023/07/09 02:25:53;;;;;;;23.17;4.72;;;21.80;99.90;;;;;;5091299;28;20090;-68
2023/07/09 02:28:19;;;;;;;25.00;5.30;;;21.90;99.90;;;;;;5090755;28;20032;-68
2023/07/09 02:30:45;;;;;;;21.77;4.80;;;22.00;99.90;;;;;;5091110;28;20426;-68
2023/07/09 02:33:11;;;;;;;21.92;4.78;;;22.20;99.90;;;;;;5091556;28;20059;-68
2023/07/09 02:35:37;;;;;;;19.30;4.65;;;21.90;99.90;;;;;;5091313;28;20024;-68
2023/07/09 02:38:03;;;;;;;13.98;3.88;;;22.00;99.90;;;;;;5091118;28;20077;-67
2023/07/09 02:40:29;;;;;;;11.68;3.58;;;22.00;99.90;;;;;;5090988;28;20026;-68
2023/07/09 02:42:55;;;;;;;10.70;3.10;;;22.20;99.90;;;;;;5090803;28;20032;-68
2023/07/09 02:45:21;;;;;;;11.60;3.45;;;22.20;99.90;;;;;;5091326;28;20024;-68
2023/07/09 02:47:47;;;;;;;10.57;3.60;;;22.10;99.90;;;;;;5091030;28;20028;-67
2023/07/09 02:50:13;;;;;;;10.25;3.00;;;22.00;99.90;;;;;;5090916;28;20402;-68
2023/07/09 02:52:39;;;;;;;10.73;3.00;;;22.00;99.90;;;;;;5091425;28;20067;-68
2023/07/09 02:55:06;;;;;;;9.75;3.10;;;22.00;99.90;;;;;;5090907;28;20021;-68
2023/07/09 02:57:31;;;;;;;8.50;2.80;;;22.00;99.90;;;;;;5090569;28;20494;-68
2023/07/09 02:59:57;;;;;;;6.65;2.92;;;22.00;99.90;;;;;;5090808;28;20035;-69
2023/07/09 03:02:23;;;;;;;8.27;2.90;;;21.70;99.90;;;;;;5091002;28;20062;-68
2023/07/09 03:04:48;;;;;;;8.25;2.53;;;21.60;99.90;;;;;;5090907;28;20043;-69
2023/07/09 03:07:14;;;;;;;8.52;2.65;;;21.50;99.90;;;;;;5090762;28;20502;-69
2023/07/09 03:09:39;;;;;;;8.20;3.03;;;21.40;99.90;;;;;;5091024;28;20048;-68
2023/07/09 03:12:06;;;;;;;8.63;3.08;;;21.30;99.90;;;;;;5090406;28;20027;-68
2023/07/09 03:14:33;;;;;;;8.13;2.90;;;21.30;99.90;;;;;;5090832;28;20099;-69
2023/07/09 03:16:58;;;;;;;8.48;3.03;;;21.30;99.90;;;;;;5090929;28;20051;-69
2023/07/09 03:19:24;;;;;;;8.18;3.05;;;21.20;99.90;;;;;;5090481;28;20474;-69
2023/07/09 03:21:49;;;;;;;7.47;3.00;;;21.20;99.90;;;;;;5093471;28;20390;-68
2023/07/09 03:24:18;;;;;;;7.47;2.83;;;21.30;99.90;;;;;;5094486;28;20478;-68
2023/07/09 03:26:45;;;;;;;6.85;2.50;;;21.30;99.90;;;;;;5094553;28;20032;-69
2023/07/09 03:29:10;;;;;;;7.10;2.60;;;21.20;99.90;;;;;;5094398;28;20452;-68
2023/07/09 03:31:36;;;;;;;6.63;2.35;;;21.20;99.90;;;;;;5094500;28;20016;-67
2023/07/09 03:34:02;;;;;;;6.07;2.42;;;21.10;99.90;;;;;;5094359;28;20032;-69
2023/07/09 03:36:28;;;;;;;5.22;2.40;;;21.20;99.90;;;;;;5094325;28;20047;-68
2023/07/09 03:38:54;;;;;;;6.38;2.63;;;21.20;99.90;;;;;;5094171;28;20035;-69
2023/07/09 03:41:20;;;;;;;6.30;2.60;;;21.10;99.90;;;;;;5092440;28;20024;-68
2023/07/09 03:43:46;;;;;;;5.50;2.63;;;21.10;99.90;;;;;;5093270;28;20085;-68
2023/07/09 03:46:12;;;;;;;6.47;2.50;;;21.10;99.90;;;;;;5094101;28;20081;-68
2023/07/09 03:48:38;;;;;;;6.75;2.58;;;21.30;99.90;;;;;;5093936;28;20028;-69
2023/07/09 03:51:04;;;;;;;5.05;2.33;;;21.50;99.90;;;;;;5094453;28;20028;-69
2023/07/09 03:53:29;;;;;;;7.78;2.65;;;21.60;99.90;;;;;;5093774;28;20398;-68
2023/07/09 03:55:56;;;;;;;7.72;2.97;;;21.70;99.90;;;;;;5093656;28;20475;-68
2023/07/09 03:58:24;;;;;;;7.00;2.70;;;21.60;99.90;;;;;;5094230;28;20036;-69
2023/07/09 04:00:49;;;;;;;6.88;2.65;;;21.70;99.90;;;;;;5092540;28;20073;-69
2023/07/09 04:03:15;;;;;;;7.53;3.35;;;21.70;99.90;;;;;;5093878;28;20032;-69
2023/07/09 04:05:41;;;;;;;7.32;3.30;;;21.70;99.90;;;;;;5094324;28;20063;-69
2023/07/09 04:08:06;;;;;;;7.05;3.05;;;21.60;99.90;;;;;;5093643;28;20024;-69
2023/07/09 04:10:32;;;;;;;7.07;3.20;;;21.60;99.90;;;;;;5093134;28;20494;-69
2023/07/09 04:12:58;;;;;;;6.13;2.45;;;21.40;99.90;;;;;;5094086;28;20297;-69
2023/07/09 04:15:24;;;;;;;8.20;2.92;;;21.60;99.90;;;;;;5093530;28;20024;-69
2023/07/09 04:17:49;;;;;;;8.13;2.90;;;21.50;99.90;;;;;;5093509;28;20039;-69
2023/07/09 04:20:15;;;;;;;7.25;2.92;;;21.40;99.90;;;;;;5093516;28;20028;-68
2023/07/09 04:22:41;;;;;;;6.68;2.85;;;21.50;99.90;;;;;;5093224;28;20047;-69
2023/07/09 04:25:10;;;;;;;5.68;2.67;;;21.40;99.90;;;;;;5093240;28;20021;-69
2023/07/09 04:27:37;;;;;;;5.72;2.60;;;21.30;99.90;;;;;;5093511;28;20099;-68
2023/07/09 04:30:05;;;;;;;5.90;2.63;;;21.20;99.90;;;;;;5093653;28;20028;-69
2023/07/09 04:32:30;;;;;;;7.07;2.83;;;21.00;99.90;;;;;;5092605;28;20031;-68
2023/07/09 04:34:56;;;;;;;6.20;2.60;;;20.90;99.90;;;;;;5093268;28;20394;-69
2023/07/09 04:37:22;;;;;;;7.50;2.88;;;20.90;99.90;;;;;;5093083;28;20035;-69
2023/07/09 04:39:47;;;;;;;5.70;2.55;;;20.80;99.90;;;;;;5093120;28;20042;-69
2023/07/09 04:42:15;;;;;;;5.72;2.20;;;20.90;99.90;;;;;;5093118;28;20031;-69
2023/07/09 04:44:41;;;;;;;5.60;2.55;;;20.90;99.90;;;;;;5093216;28;20081;-69
2023/07/09 04:47:07;;;;;;;4.97;2.58;;;20.90;99.90;;;;;;5093403;28;20020;-68
2023/07/09 04:49:34;;;;;;;7.07;2.70;;;20.80;99.90;;;;;;5092519;28;20555;-70
2023/07/09 04:52:00;;;;;;;6.10;3.05;;;20.90;99.90;;;;;;5093035;28;20020;-69
2023/07/09 04:54:27;;;;;;;8.10;3.33;;;20.90;99.90;;;;;;5092626;28;20036;-69
2023/07/09 04:56:52;;;;;;;9.43;3.08;;;20.90;99.90;;;;;;5092856;28;20026;-69
2023/07/09 04:59:19;;;;;;;17.33;4.35;;;20.90;99.90;;;;;;5092848;28;20399;-70
2023/07/09 05:01:45;;;;;;;20.50;4.78;;;21.00;99.90;;;;;;5092914;28;20152;-69
2023/07/09 05:04:11;;;;;;;14.52;4.38;;;21.00;99.90;;;;;;5092092;28;20028;-69
2023/07/09 05:06:36;;;;;;;17.38;4.70;;;21.10;99.90;;;;;;5093030;28;20567;-69
2023/07/09 05:09:02;;;;;;;16.88;4.65;;;21.50;99.90;;;;;;5092227;28;20036;-69
2023/07/09 05:11:28;;;;;;;13.13;4.20;;;21.60;99.90;;;;;;5092563;28;20571;-68
2023/07/09 05:13:54;;;;;;;11.32;3.60;;;21.80;99.90;;;;;;5092458;28;20149;-69
2023/07/09 05:16:20;;;;;;;18.90;5.32;;;21.90;99.90;;;;;;5091110;28;20611;-69
2023/07/09 05:18:45;;;;;;;23.80;6.03;;;22.00;99.90;;;;;;5091934;28;20436;-69
2023/07/09 05:21:12;;;;;;;32.85;7.95;;;22.20;99.90;;;;;;5092339;28;20024;-68
2023/07/09 05:23:37;;;;;;;25.35;6.85;;;22.10;99.90;;;;;;5092032;28;20089;-69
2023/07/09 05:26:04;;;;;;;26.42;6.32;;;22.10;99.90;;;;;;5092477;28;20036;-69
2023/07/09 05:28:32;;;;;;;23.02;6.03;;;22.10;99.90;;;;;;5092064;28;20031;-69
2023/07/09 05:30:58;;;;;;;25.92;6.72;;;22.10;99.90;;;;;;5092220;28;20123;-68
2023/07/09 05:33:24;;;;;;;32.92;6.57;;;22.20;99.90;;;;;;5092184;28;20103;-69
2023/07/09 05:35:50;;;;;;;21.98;6.38;;;22.20;99.90;;;;;;5091840;28;20028;-68
2023/07/09 05:38:15;;;;;;;25.63;5.40;;;22.30;99.90;;;;;;5092089;28;20519;-68
2023/07/09 05:40:42;;;;;;;22.60;5.13;;;22.30;99.90;;;;;;5092209;28;20033;-68
2023/07/09 05:43:08;;;;;;;17.35;5.03;;;22.20;99.90;;;;;;5091801;28;20211;-68
2023/07/09 05:45:34;;;;;;;17.23;5.13;;;22.00;99.90;;;;;;5090818;28;20028;-69
2023/07/09 05:47:59;;;;;;;22.10;5.05;;;21.90;99.90;;;;;;5091994;28;20390;-68
2023/07/09 05:50:26;;;;;;;15.65;4.47;;;21.80;99.90;;;;;;5091654;28;20047;-69
2023/07/09 05:52:52;;;;;;;16.67;4.95;;;21.70;99.90;;;;;;5091816;28;20492;-69
2023/07/09 05:55:17;;;;;;;16.02;4.70;;;21.70;99.90;;;;;;5091643;28;20522;-68
2023/07/09 05:57:43;;;;;;;16.25;4.53;;;21.60;99.90;;;;;;5091796;28;20017;-69
2023/07/09 06:00:10;;;;;;;15.05;4.68;;;21.60;99.90;;;;;;5091882;28;20039;-68
2023/07/09 06:02:35;;;;;;;14.98;4.45;;;21.60;99.90;;;;;;5091439;28;20040;-69
2023/07/09 06:05:01;;;;;;;14.07;4.45;;;21.60;99.90;;;;;;5091291;28;20024;-68
2023/07/09 06:07:27;;;;;;;17.67;4.88;;;21.60;99.90;;;;;;5091910;28;20548;-68
2023/07/09 06:09:53;;;;;;;13.40;4.50;;;21.60;99.90;;;;;;5091319;28;20032;-68
2023/07/09 06:12:19;;;;;;;14.60;4.55;;;21.60;99.90;;;;;;5091727;28;20563;-68
2023/07/09 06:14:46;;;;;;;19.08;4.57;;;21.60;99.90;;;;;;5091409;28;20024;-68
2023/07/09 06:17:12;;;;;;;17.05;4.78;;;21.60;99.90;;;;;;5091744;28;20028;-69
2023/07/09 06:19:38;;;;;;;18.88;4.70;;;21.60;99.90;;;;;;5091046;28;20462;-68
2023/07/09 06:22:04;;;;;;;15.20;4.78;;;21.60;99.90;;;;;;5091356;28;20024;-69
2023/07/09 06:24:30;;;;;;;14.98;4.70;;;21.60;99.90;;;;;;5091175;28;20116;-69
2023/07/09 06:26:56;;;;;;;15.00;3.97;;;21.60;99.90;;;;;;5090107;28;20078;-69
2023/07/09 06:29:21;;;;;;;15.20;4.60;;;21.90;99.90;;;;;;5091089;28;20047;-69
2023/07/09 06:31:47;;;;;;;15.27;4.32;;;22.10;99.90;;;;;;5091450;28;20020;-69
2023/07/09 06:34:13;;;;;;;10.52;3.88;;;22.30;99.90;;;;;;5090628;28;20470;-69
2023/07/09 06:36:38;;;;;;;13.32;4.45;;;22.40;99.90;;;;;;5091300;28;20064;-68
2023/07/09 06:39:05;;;;;;;13.02;3.88;;;22.50;99.90;;;;;;5091133;28;20073;-69
2023/07/09 06:41:32;;;;;;;12.07;3.70;;;22.60;99.90;;;;;;5091040;28;20439;-68
2023/07/09 06:43:58;;;;;;;9.40;3.50;;;22.60;99.90;;;;;;5091018;28;20028;-68
2023/07/09 06:46:24;;;;;;;10.32;3.42;;;22.70;99.90;;;;;;5090833;28;20115;-69
2023/07/09 06:48:49;;;;;;;11.15;3.63;;;22.70;99.90;;;;;;5090617;28;20036;-68
2023/07/09 06:51:15;;;;;;;11.30;3.67;;;22.70;99.90;;;;;;5091420;28;20032;-68
2023/07/09 06:53:42;;;;;;;9.88;3.42;;;22.70;99.90;;;;;;5091046;28;20376;-69
2023/07/09 06:56:08;;;;;;;9.30;3.78;;;22.70;99.90;;;;;;5092765;28;20501;-68
2023/07/09 06:58:36;;;;;;;11.57;3.55;;;22.60;99.90;;;;;;5095140;28;20062;-69
2023/07/09 07:01:04;;;;;;;9.95;3.42;;;22.80;99.90;;;;;;5095037;28;20020;-69
2023/07/09 07:03:32;;;;;;;11.05;3.30;;;22.80;99.90;;;;;;5094815;28;20028;-68
2023/07/09 07:05:57;;;;;;;10.13;3.72;;;22.70;99.90;;;;;;5095305;28;20027;-68
2023/07/09 07:08:25;;;;;;;11.18;3.53;;;22.70;99.90;;;;;;5094836;28;20032;-68
2023/07/09 07:11:02;;;;;;;9.88;3.00;;;22.60;99.90;;;;;;5094872;28;20080;-68
2023/07/09 07:13:39;;;;;;;11.52;3.67;;;22.50;99.90;;;;;;5094893;28;20151;-68
2023/07/09 07:16:10;;;;;;;13.65;3.85;;;22.40;99.90;;;;;;5094612;28;20024;-68
2023/07/09 07:18:36;;;;;;;10.18;3.58;;;22.40;99.90;;;;;;5094808;28;20050;-68
2023/07/09 07:21:02;;;;;;;10.60;3.50;;;22.40;99.90;;;;;;5094858;28;20043;-68
2023/07/09 07:23:28;;;;;;;11.48;3.65;;;22.40;99.90;;;;;;5094623;28;20131;-68
2023/07/09 07:25:54;;;;;;;9.73;3.22;;;22.40;99.90;;;;;;5095543;28;20107;-68
2023/07/09 07:28:21;;;;;;;11.35;3.75;;;22.40;99.90;;;;;;5094814;28;20553;-68
2023/07/09 07:30:46;;;;;;;11.50;3.67;;;22.50;99.90;;;;;;5094452;28;20586;-68
2023/07/09 07:33:15;;;;;;;11.95;3.70;;;22.50;99.90;;;;;;5094169;28;20098;-68
2023/07/09 07:35:41;;;;;;;12.32;3.53;;;22.50;99.90;;;;;;5094649;28;20038;-68
2023/07/09 07:38:07;;;;;;;13.98;3.60;;;22.50;99.90;;;;;;5094589;28;20020;-68
2023/07/09 07:40:32;;;;;;;13.95;3.75;;;22.50;99.90;;;;;;5094364;28;20074;-68
2023/07/09 07:42:58;;;;;;;14.27;3.92;;;22.50;99.90;;;;;;5094428;28;20081;-68
2023/07/09 07:45:24;;;;;;;8.40;3.67;;;22.50;99.90;;;;;;5094455;28;20020;-68
2023/07/09 07:47:51;;;;;;;12.70;3.92;;;22.50;99.90;;;;;;5093831;28;20016;-68
2023/07/09 07:50:20;;;;;;;10.73;3.45;;;22.70;99.90;;;;;;5094448;28;20402;-68
2023/07/09 07:52:45;;;;;;;12.18;3.70;;;22.90;99.90;;;;;;5094118;28;20031;-68
2023/07/09 07:55:11;;;;;;;9.82;3.80;;;23.00;99.90;;;;;;5094361;28;20461;-68
2023/07/09 07:57:37;;;;;;;11.90;3.65;;;23.20;99.90;;;;;;5094660;28;20528;-68
2023/07/09 08:00:03;;;;;;;12.30;3.50;;;23.30;99.90;;;;;;5092945;28;20490;-68
2023/07/09 08:02:29;;;;;;;10.70;3.67;;;23.30;99.90;;;;;;5093754;28;20055;-68
2023/07/09 08:04:54;;;;;;;12.68;3.80;;;23.30;99.90;;;;;;5093892;28;20063;-68
2023/07/09 08:07:20;;;;;;;12.38;3.67;;;23.50;99.90;;;;;;5092968;28;20028;-68
2023/07/09 08:09:47;;;;;;;11.23;3.58;;;23.50;99.90;;;;;;5093854;28;20036;-67
2023/07/09 08:12:14;;;;;;;11.13;3.72;;;23.60;99.90;;;;;;5094104;28;20448;-68
2023/07/09 08:14:41;;;;;;;9.13;3.70;;;23.50;99.90;;;;;;5093591;28;20016;-68
2023/07/09 08:17:08;;;;;;;8.88;3.38;;;23.50;99.90;;;;;;5093283;28;20028;-68
2023/07/09 08:19:45;;;;;;;8.68;3.13;;;23.50;99.90;;;;;;5093698;28;20030;-68
2023/07/09 08:22:11;;;;;;;11.45;3.55;;;23.60;99.90;;;;;;5093486;28;20027;-67
2023/07/09 08:24:37;;;;;;;8.40;3.35;;;23.70;99.90;;;;;;5093695;28;20032;-68
2023/07/09 08:27:03;;;;;;;9.10;3.65;;;23.60;99.90;;;;;;5093324;28;20406;-68
2023/07/09 08:29:29;;;;;;;9.10;3.28;;;23.60;99.90;;;;;;5093283;28;20035;-67
2023/07/09 08:31:54;;;;;;;10.90;4.03;;;23.40;99.90;;;;;;5093426;28;20066;-68
2023/07/09 08:34:20;;;;;;;10.30;3.80;;;23.30;99.90;;;;;;5093474;28;20517;-67
2023/07/09 08:36:46;;;;;;;13.88;4.22;;;23.20;99.90;;;;;;5093280;28;20537;-67
2023/07/09 08:39:11;;;;;;;11.98;3.90;;;23.20;99.90;;;;;;5092012;28;20027;-68
2023/07/09 08:41:46;;;;;;;11.50;3.97;;;23.20;99.90;;;;;;5091690;28;20028;-69
2023/07/09 08:44:27;;;;;;;12.05;3.67;;;23.30;99.90;;;;;;5093123;28;20020;-67
2023/07/09 08:46:56;;;;;;;13.00;4.18;;;23.30;99.90;;;;;;5093106;28;20027;-68
2023/07/09 08:49:30;;;;;;;9.52;3.53;;;23.40;99.90;;;;;;5092922;28;20032;-68
2023/07/09 08:51:57;;;;;;;10.60;3.70;;;23.30;99.90;;;;;;5093009;28;20019;-68
2023/07/09 08:54:34;;;;;;;11.65;4.00;;;23.30;99.90;;;;;;5093412;28;20035;-68
2023/07/09 08:57:14;;;;;;;13.50;4.00;;;23.30;99.90;;;;;;5092843;28;20031;-68
2023/07/09 08:59:41;;;;;;;12.85;3.90;;;23.20;99.90;;;;;;5092698;28;20035;-68
2023/07/09 09:02:22;;;;;;;10.43;3.72;;;23.30;99.90;;;;;;5092780;28;20099;-68
2023/07/09 09:04:48;;;;;;;10.60;3.92;;;23.30;99.90;;;;;;5092779;28;20494;-67
2023/07/09 09:07:28;;;;;;;12.20;3.92;;;23.40;99.90;;;;;;5092740;28;20065;-68
2023/07/09 09:10:01;;;;;;;13.35;3.83;;;23.50;99.90;;;;;;5092488;28;20032;-67
2023/07/09 09:12:37;;;;;;;10.07;3.25;;;23.60;99.90;;;;;;5092579;28;20490;-68
2023/07/09 09:15:13;;;;;;;11.73;3.33;;;23.90;99.90;;;;;;5092637;28;20035;-68
2023/07/09 09:17:40;;;;;;;12.38;3.95;;;24.00;99.90;;;;;;5092300;28;20024;-68
2023/07/09 09:20:19;;;;;;;9.32;3.60;;;24.10;99.90;;;;;;5092173;28;20157;-68
2023/07/09 09:22:56;;;;;;;11.13;3.63;;;24.20;99.90;;;;;;5092348;28;20055;-68
2023/07/09 09:25:33;;;;;;;10.35;3.90;;;24.30;99.90;;;;;;5092551;28;20502;-67
2023/07/09 09:28:02;;;;;;;7.55;3.00;;;24.50;99.90;;;;;;5092101;28;20039;-68
2023/07/09 09:30:29;;;;;;;10.40;3.40;;;24.60;99.90;;;;;;5092233;28;20039;-68
2023/07/09 09:33:00;;;;;;;10.10;3.25;;;24.70;99.90;;;;;;5092180;28;20513;-67
2023/07/09 09:35:45;;;;;;;8.02;3.53;;;24.70;99.90;;;;;;5092539;28;20113;-68
2023/07/09 09:38:22;;;;;;;9.18;3.60;;;24.70;99.90;;;;;;5092144;28;20021;-68
2023/07/09 09:40:48;;;;;;;8.20;3.08;;;24.80;99.90;;;;;;5092263;28;20077;-68
2023/07/09 09:43:20;;;;;;;9.00;3.20;;;24.80;99.90;;;;;;5091947;28;20035;-68
2023/07/09 09:45:48;;;;;;;9.65;3.33;;;24.80;99.90;;;;;;5092389;28;20047;-68
2023/07/09 09:48:15;;;;;;;7.20;2.90;;;24.80;99.90;;;;;;5090770;28;20169;-71
2023/07/09 09:50:41;;;;;;;7.55;2.95;;;24.80;99.90;;;;;;5092208;28;20249;-68
2023/07/09 09:53:09;;;;;;;9.27;2.92;;;24.70;99.90;;;;;;5092007;28;20024;-68
2023/07/09 09:55:35;;;;;;;9.57;2.90;;;24.60;99.90;;;;;;5091831;28;20032;-68
2023/07/09 09:58:04;;;;;;;7.65;2.38;;;24.50;99.90;;;;;;5091453;28;20041;-68
2023/07/09 10:00:33;;;;;;;7.75;2.30;;;24.40;99.90;;;;;;5091668;28;20115;-68
2023/07/09 10:03:06;;;;;;;7.85;2.60;;;24.50;99.90;;;;;;5091904;28;20081;-68
2023/07/09 10:05:34;;;;;;;;;;;24.50;99.90;;;;;;5092138;28;20036;-69
2023/07/09 10:08:07;;;;;;;8.07;2.40;;;24.50;99.90;;;;;;5091653;28;19904;-68
2023/07/09 10:10:33;;;;;;;7.18;2.38;;;24.60;99.90;;;;;;5091842;28;20028;-69
2023/07/09 10:13:12;;;;;;;7.35;2.72;;;24.40;99.90;;;;;;5091327;28;20020;-67
2023/07/09 10:15:43;;;;;;;6.97;2.30;;;24.40;99.90;;;;;;5091626;28;20036;-68
2023/07/09 10:18:44;;;;;;;5.35;2.28;;;24.40;99.90;;;;;;5091316;28;20024;-68
2023/07/09 10:21:22;;;;;;;7.70;2.78;;;24.40;99.90;;;;;;5091436;28;20031;-68
2023/07/09 10:24:08;;;;;;;5.43;2.00;;;24.50;99.90;;;;;;5091110;28;20048;-68
2023/07/09 10:27:08;;;;;;;9.55;2.30;;;24.60;99.90;;;;;;5090988;28;20032;-68
2023/07/09 10:30:11;;;;;;;5.95;2.20;;;24.60;99.90;;;;;;5091195;28;20507;-68
2023/07/09 10:32:49;;;;;;;5.95;2.40;;;24.60;99.90;;;;;;5091707;28;20103;-68
2023/07/09 10:35:44;;;;;;;7.88;2.70;;;24.80;99.90;;;;;;5091361;28;20055;-68
2023/07/09 10:38:34;;;;;;;6.78;2.45;;;25.10;99.90;;;;;;5028896;28;20490;-68
2023/07/09 10:41:03;;;;;;;5.50;2.10;;;25.30;99.90;;;;;;5028487;28;20087;-67
2023/07/09 10:43:38;;;;;;;7.80;2.40;;;25.60;99.90;;;;;;5028629;28;20115;-68
2023/07/09 10:46:14;;;;;;;4.95;2.20;;;25.70;99.90;;;;;;5028817;28;20033;-68
2023/07/09 10:48:47;;;;;;;6.00;2.53;;;25.60;99.90;;;;;;5028523;28;20550;-68
2023/07/09 10:51:39;;;;;;;6.82;2.10;;;25.70;99.90;;;;;;5029303;28;20036;-68
2023/07/09 10:54:19;;;;;;;4.90;2.10;;;25.80;99.90;;;;;;5028673;28;20030;-68
2023/07/09 10:56:50;;;;;;;8.00;2.55;;;25.80;99.90;;;;;;5028252;28;20037;-68
2023/07/09 10:59:33;;;;;;;6.38;2.10;;;25.80;99.90;;;;;;5028667;28;20021;-68
2023/07/09 11:02:18;;;;;;;6.07;2.37;;;25.80;99.90;;;;;;5028769;28;20033;-67
2023/07/09 11:04:58;;;;;;;6.82;2.33;;;25.90;99.90;;;;;;5028985;28;20022;-68
2023/07/09 11:07:56;;;;;;;7.40;2.53;;;26.00;99.90;;;;;;5028787;28;20026;-68
2023/07/09 11:10:26;;;;;;;6.72;2.75;;;26.00;99.90;;;;;;5028342;28;20036;-68
2023/07/09 11:13:00;;;;;;;7.43;2.40;;;26.00;99.90;;;;;;5028447;28;20026;-68
2023/07/09 11:15:32;;;;;;;7.93;2.53;;;26.10;99.90;;;;;;5068835;28;20040;-68
2023/07/09 11:17:59;;;;;;;6.93;2.35;;;25.90;99.90;;;;;;5091005;28;20024;-68
2023/07/09 11:20:31;;;;;;;5.45;2.25;;;25.60;99.90;;;;;;5090652;28;20027;-69
2023/07/09 11:23:25;;;;;;;6.45;2.70;;;25.60;99.90;;;;;;5090634;28;20417;-69
2023/07/09 11:26:13;;;;;;;6.45;2.17;;;25.60;99.90;;;;;;5090584;28;20106;-68
2023/07/09 11:28:40;;;;;;;6.40;2.17;;;25.70;99.90;;;;;;5090636;28;20070;-68
2023/07/09 11:31:08;;;;;;;6.85;2.25;;;25.70;99.90;;;;;;5089400;28;20411;-68
2023/07/09 11:33:44;;;;;;;5.72;2.22;;;25.70;99.90;;;;;;5090701;28;20032;-68
2023/07/09 11:36:13;;;;;;;5.55;2.03;;;25.60;99.90;;;;;;5090650;28;20024;-68
2023/07/09 11:38:47;;;;;;;6.32;2.05;;;25.50;99.90;;;;;;5090218;28;20033;-68
2023/07/09 11:41:34;;;;;;;8.82;2.38;;;25.60;99.90;;;;;;5090814;28;20418;-68
2023/07/09 11:44:20;;;;;;;6.45;2.20;;;25.70;99.90;;;;;;5094631;28;20032;-68
2023/07/09 11:46:58;;;;;;;5.45;2.08;;;25.70;99.90;;;;;;5094718;28;20102;-67
2023/07/09 11:49:27;;;;;;;5.90;2.10;;;25.40;99.90;;;;;;5094367;28;20506;-67
2023/07/09 11:51:59;;;;;;;4.88;2.28;;;25.60;99.90;;;;;;5094062;28;20058;-67
2023/07/09 11:54:24;;;;;;;6.38;2.05;;;25.60;99.90;;;;;;5093956;28;20024;-67
2023/07/09 11:56:58;;;;;;;5.97;2.15;;;25.70;99.90;;;;;;5094605;28;20127;-68
2023/07/09 11:59:24;;;;;;;6.22;2.88;;;25.80;99.90;;;;;;5093617;28;20070;-68
2023/07/09 12:01:54;;;;;;;5.25;2.13;;;26.10;99.90;;;;;;5094525;28;20028;-67
2023/07/09 12:04:26;;;;;;;4.80;1.90;;;26.10;99.90;;;;;;5093918;28;20035;-67
2023/07/09 12:06:57;;;;;;;4.65;2.30;;;26.30;99.90;;;;;;5093889;28;20020;-67
2023/07/09 12:09:22;;;;;;;8.25;2.90;;;26.50;99.90;;;;;;5093378;28;20039;-67
2023/07/09 12:11:50;;;;;;;4.72;2.30;;;26.50;99.90;;;;;;5094326;28;20027;-67
2023/07/09 12:14:21;;;;;;;6.35;2.45;;;26.30;99.90;;;;;;5093711;28;20406;-67
2023/07/09 12:16:52;;;;;;;4.05;1.70;;;26.30;99.90;;;;;;5093678;28;20027;-67
2023/07/09 12:19:23;;;;;;;4.50;1.95;;;26.30;99.90;;;;;;5093850;28;20028;-67
2023/07/09 12:21:53;;;;;;;3.17;1.50;;;26.20;99.90;;;;;;5093248;28;20038;-67
2023/07/09 12:24:22;;;;;;;4.82;1.52;;;26.30;99.90;;;;;;5093507;28;20051;-67
2023/07/09 12:26:58;;;;;;;6.45;1.80;;;26.40;99.90;;;;;;5093606;28;20066;-67
2023/07/09 12:29:29;;;;;;;4.60;2.00;;;26.50;99.90;;;;;;5093178;28;20036;-67
2023/07/09 12:31:58;;;;;;;4.05;1.50;;;26.60;99.90;;;;;;5093812;28;20024;-67
2023/07/09 12:34:25;;;;;;;4.13;1.95;;;26.60;99.90;;;;;;5093380;28;20506;-67
2023/07/09 12:36:53;;;;;;;3.92;1.70;;;26.50;99.90;;;;;;5093011;28;20032;-67
2023/07/09 12:39:25;;;;;;;6.20;1.80;;;26.60;99.90;;;;;;5091986;28;20067;-67
2023/07/09 12:41:55;;;;;;;4.50;1.80;;;26.50;99.90;;;;;;5093641;28;20474;-67
2023/07/09 12:44:23;;;;;;;4.28;1.90;;;26.50;99.90;;;;;;5093111;28;20035;-67
2023/07/09 12:46:52;;;;;;;5.13;1.75;;;26.50;99.90;;;;;;5093226;28;20024;-67
2023/07/09 12:49:29;;;;;;;4.97;1.67;;;26.30;99.90;;;;;;5092968;28;20494;-68
2023/07/09 12:52:01;;;;;;;4.28;1.70;;;26.20;99.90;;;;;;5092576;28;20024;-67
2023/07/09 12:54:29;;;;;;;3.57;1.50;;;26.20;99.90;;;;;;5092513;28;20038;-67